La Habra, California
Current Conditions -  °F | °C
As of 2:53 AM on Friday 24 Oct 2014 (Local Time) from KFUL Reporting Station
Clear Clear  
Wind Chill: 16°   Ceiling: Unl
Heat Index: 16°   Visibility: 10mi
Dew Point: 12°   Wind: 0mph
Humidity: 78%   Direction: NA
Pressure: 29.95"   Gusts: NA
Location:  33.93°N, 117.94°W
Report Text: KFUL 240953Z 00000KT 10SM CLR 16/12 A2995 RMK AO2 SLP141 T01610122 $
Loading
Personal Weather Stations






























Interactive Weather Map
Tropical Storm Tracking
New forecast layout! Learn more

10-Day Weather Forecast

Advertisements
Track Severe Weather on mobile